Time;durP1;ratioP1;P1;durP2;ratioP2;P2;SDS_P1;SDS_P2;PMS_P1;PMS_P2;Temp;Humidity;BMP_temperature;BMP_pressure;BME280_temperature;BME280_humidity;BME280_pressure;Samples;Min_cycle;Max_cycle;Signal;HPM_P1;HPM_P2
2024/01/30 00:00:27;;;;;;;;;;;27.10;99.90;;;;;;5114337;28;19915;-66
2024/01/30 00:02:53;;;;;;;;;;;27.20;99.90;;;;;;5114618;28;20359;-69
2024/01/30 00:05:20;;;;;;;;;;;27.20;99.90;;;;;;5114653;28;19912;-65
2024/01/30 00:07:47;;;;;;;;;;;27.10;99.90;;;;;;5114803;27;19908;-68
2024/01/30 00:10:13;;;;;;;;;;;27.00;99.90;;;;;;5114753;28;19970;-68
2024/01/30 00:12:40;;;;;;;;;;;27.00;99.90;;;;;;5114729;28;19918;-68
2024/01/30 00:15:09;;;;;;;;;;;27.00;99.90;;;;;;5113491;28;19918;-67
2024/01/30 00:17:36;;;;;;;;;;;26.80;99.90;;;;;;5114392;28;19911;-67
2024/01/30 00:20:07;;;;;;;;;;;26.60;99.90;;;;;;5114580;28;19915;-68
2024/01/30 00:22:33;;;;;;;;;;;26.50;99.90;;;;;;5114241;28;19912;-66
2024/01/30 00:25:00;;;;;;;;;;;26.50;99.90;;;;;;5113933;28;19962;-68
2024/01/30 00:27:27;;;;;;;;;;;26.40;99.90;;;;;;5112200;28;19916;-68
2024/01/30 00:29:54;;;;;;;;;;;26.50;99.90;;;;;;5112084;28;20015;-68
2024/01/30 00:32:20;;;;;;;;;;;26.60;99.90;;;;;;5113829;28;19904;-66
2024/01/30 00:34:47;;;;;;;;;;;26.80;99.90;;;;;;5113575;28;20298;-66
2024/01/30 00:37:14;;;;;;;;;;;26.90;99.90;;;;;;5114008;28;19908;-67
2024/01/30 00:39:40;;;;;;;;;;;26.80;99.90;;;;;;5113731;28;19916;-69
2024/01/30 00:42:07;;;;;;;;;;;26.80;99.90;;;;;;5113794;28;19908;-67
2024/01/30 00:44:39;;;;;;;;;;;26.80;99.90;;;;;;5113974;28;20283;-64
2024/01/30 00:47:06;;;;;;;;;;;26.90;99.90;;;;;;5095514;28;19915;-66
2024/01/30 00:49:32;;;;;;;;;;;26.90;99.90;;;;;;5113596;28;19918;-67
2024/01/30 00:51:59;;;;;;;;;;;26.90;99.90;;;;;;5113306;28;19919;-66
2024/01/30 00:54:26;;;;;;;;;;;27.20;99.90;;;;;;5113054;28;19908;-67
2024/01/30 00:56:52;;;;;;;;;;;27.40;99.90;;;;;;5111070;28;19992;-65
2024/01/30 00:59:19;;;;;;;;;;;27.50;99.90;;;;;;5113268;28;20369;-65
2024/01/30 01:01:49;;;;;;;;;;;27.60;99.90;;;;;;5112905;28;20200;-68
2024/01/30 01:04:17;;;;;;;;;;;27.70;99.90;;;;;;5095484;28;19908;-68
2024/01/30 01:06:44;;;;;;;;;;;27.80;99.90;;;;;;5113000;28;19998;-68
2024/01/30 01:09:13;;;;;;;;;;;28.00;99.90;;;;;;5110955;28;19908;-67
2024/01/30 01:11:40;;;;;;;;;;;28.10;99.90;;;;;;5113563;28;19999;-67
2024/01/30 01:14:07;;;;;;;;;;;28.40;99.90;;;;;;5113570;28;19919;-69
2024/01/30 01:16:33;;;;;;;;;;;28.70;99.90;;;;;;5113144;28;20052;-67
2024/01/30 01:19:00;;;;;;;;;;;28.90;99.90;;;;;;5113481;28;20372;-72
2024/01/30 01:21:27;;;;;;;;;;;29.00;99.90;;;;;;5113737;28;20356;-68
2024/01/30 01:23:54;;;;;;;;;;;29.10;99.90;;;;;;5113628;28;19915;-71
2024/01/30 01:26:21;;;;;;;;;;;28.90;99.90;;;;;;5113223;28;19990;-73
2024/01/30 01:28:48;;;;;;;;;;;29.00;99.90;;;;;;5113227;28;19908;-69
2024/01/30 01:31:15;;;;;;;;;;;29.10;99.90;;;;;;5113245;28;20404;-68
2024/01/30 01:33:42;;;;;;;;;;;29.20;99.90;;;;;;5112297;28;19995;-69
2024/01/30 01:36:09;;;;;;;;;;;29.10;99.90;;;;;;5094749;28;20372;-70
2024/01/30 01:38:35;;;;;;;;;;;29.10;99.90;;;;;;5113173;28;19953;-68
2024/01/30 01:41:02;;;;;;;;;;;29.20;99.90;;;;;;5112646;28;20006;-67
2024/01/30 01:43:29;;;;;;;;;;;29.20;99.90;;;;;;5113150;28;19930;-67
2024/01/30 01:45:56;;;;;;;;;;;29.20;99.90;;;;;;5113328;28;19908;-67
2024/01/30 01:48:23;;;;;;;;;;;29.10;99.90;;;;;;5113246;28;19908;-73
2024/01/30 01:50:49;;;;;;;;;;;29.00;99.90;;;;;;5113285;28;19916;-71
2024/01/30 01:53:17;;;;;;;;;;;28.90;99.90;;;;;;5112948;28;19912;-68
2024/01/30 01:55:46;;;;;;;;;;;28.80;99.90;;;;;;5094786;28;20293;-67
2024/01/30 01:58:12;;;;;;;;;;;28.60;99.90;;;;;;5113301;28;19912;-66
2024/01/30 02:00:41;;;;;;;;;;;28.50;99.90;;;;;;5113103;28;19968;-71
2024/01/30 02:03:08;;;;;;;;;;;28.30;99.90;;;;;;5112905;28;19907;-67
2024/01/30 02:05:35;;;;;;;;;;;28.30;99.90;;;;;;5112858;28;19915;-67
2024/01/30 02:08:02;;;;;;;;;;;28.40;99.90;;;;;;5112978;28;19995;-68
2024/01/30 02:10:29;;;;;;;;;;;28.40;99.90;;;;;;5106091;28;19986;-67
2024/01/30 02:12:55;;;;;;;;;;;28.60;99.90;;;;;;5092517;28;19938;-70
2024/01/30 02:15:22;;;;;;;;;;;28.70;99.90;;;;;;5092599;28;19909;-66
2024/01/30 02:17:49;;;;;;;;;;;28.80;99.90;;;;;;5092565;28;19916;-68
2024/01/30 02:20:15;;;;;;;;;;;28.80;99.90;;;;;;5092596;28;20028;-66
2024/01/30 02:22:43;;;;;;;;;;;28.80;99.90;;;;;;5092753;28;19908;-67
2024/01/30 02:25:09;;;;;;;;;;;28.90;99.90;;;;;;5092758;28;20323;-68
2024/01/30 02:27:36;;;;;;;;;;;29.20;99.90;;;;;;5092602;28;19916;-71
2024/01/30 02:30:03;;;;;;;;;;;29.50;99.90;;;;;;5101933;28;19915;-70
2024/01/30 02:32:29;;;;;;;;;;;29.80;99.90;;;;;;5112735;28;19911;-69
2024/01/30 02:34:56;;;;;;;;;;;30.30;99.90;;;;;;5112861;28;19916;-68
2024/01/30 02:37:23;;;;;;;;;;;30.60;99.90;;;;;;5114365;28;19908;-69
2024/01/30 02:39:49;;;;;;;;;;;30.60;99.90;;;;;;5116485;28;20291;-69
2024/01/30 02:42:16;;;;;;;;;;;30.80;99.90;;;;;;5110930;28;19920;-71
2024/01/30 02:44:43;;;;;;;;;;;30.80;99.90;;;;;;5112638;28;20006;-67
2024/01/30 02:47:09;;;;;;;;;;;30.70;99.90;;;;;;5116640;28;19904;-70
2024/01/30 02:49:36;;;;;;;;;;;30.50;99.90;;;;;;5116696;28;19930;-68
2024/01/30 02:52:03;;;;;;;;;;;30.60;99.90;;;;;;5116554;28;19914;-70
2024/01/30 02:54:30;;;;;;;;;;;30.80;99.90;;;;;;5116314;28;20449;-70
2024/01/30 02:56:57;;;;;;;;;;;31.00;99.90;;;;;;5101300;28;20293;-70
2024/01/30 02:59:23;;;;;;;;;;;31.40;99.90;;;;;;5096000;28;19908;-71
2024/01/30 03:01:50;;;;;;;;;;;31.50;99.90;;;;;;5096212;28;19916;-70
2024/01/30 03:04:17;;;;;;;;;;;31.80;99.90;;;;;;5095871;28;20387;-68
2024/01/30 03:06:49;;;;;;;;;;;31.90;99.90;;;;;;5095393;28;19908;-69
2024/01/30 03:09:17;;;;;;;;;;;31.70;99.90;;;;;;5095586;28;19922;-73
2024/01/30 03:11:44;;;;;;;;;;;31.60;99.90;;;;;;5096004;28;19961;-68
2024/01/30 03:14:11;;;;;;;;;;;32.00;99.90;;;;;;5095901;28;19912;-71
2024/01/30 03:16:38;;;;;;;;;;;32.30;99.90;;;;;;5099845;28;19916;-70
2024/01/30 03:19:07;;;;;;;;;;;32.40;99.60;;;;;;5095787;28;20290;-73
2024/01/30 03:21:34;;;;;;;;;;;32.40;99.40;;;;;;5095514;28;19916;-69
2024/01/30 03:24:00;;;;;;;;;;;32.40;99.30;;;;;;5095327;28;19908;-67
2024/01/30 03:26:27;;;;;;;;;;;32.30;99.20;;;;;;5095279;28;19908;-69
2024/01/30 03:28:54;;;;;;;;;;;31.90;99.60;;;;;;5095499;28;19913;-68
2024/01/30 03:31:20;;;;;;;;;;;31.50;99.90;;;;;;5095088;28;20006;-70
2024/01/30 03:33:47;;;;;;;;;;;31.40;99.90;;;;;;5095141;28;19914;-67
2024/01/30 03:36:15;;;;;;;;;;;31.00;99.90;;;;;;5095273;28;19969;-72
2024/01/30 03:38:42;;;;;;;;;;;30.60;99.90;;;;;;5095163;28;19944;-71
2024/01/30 03:41:09;;;;;;;;;;;30.40;99.90;;;;;;5095056;28;19991;-68
2024/01/30 03:43:36;;;;;;;;;;;30.20;99.90;;;;;;5111268;28;19908;-67
2024/01/30 03:46:03;;;;;;;;;;;30.00;99.90;;;;;;5115566;28;19912;-68
2024/01/30 03:48:29;;;;;;;;;;;30.10;99.90;;;;;;5114851;28;19912;-70
2024/01/30 03:50:56;;;;;;;;;;;29.90;99.90;;;;;;5115380;28;19908;-68
2024/01/30 03:53:23;;;;;;;;;;;29.80;99.90;;;;;;5115331;28;19908;-70
2024/01/30 03:55:49;;;;;;;;;;;29.60;99.90;;;;;;5114585;28;19919;-68
2024/01/30 03:58:16;;;;;;;;;;;29.40;99.90;;;;;;5115195;28;19915;-70
2024/01/30 04:00:42;;;;;;;;;;;29.20;99.90;;;;;;5115393;28;19916;-67
2024/01/30 04:03:09;;;;;;;;;;;29.10;99.90;;;;;;5115414;28;20012;-68
2024/01/30 04:05:36;;;;;;;;;;;28.90;99.90;;;;;;5114911;28;19907;-68
2024/01/30 04:08:02;;;;;;;;;;;28.90;99.90;;;;;;5115407;28;19949;-69
2024/01/30 04:10:29;;;;;;;;;;;29.10;99.90;;;;;;5114878;28;20291;-67
2024/01/30 04:12:56;;;;;;;;;;;29.40;99.90;;;;;;5115200;28;19912;-72
2024/01/30 04:15:22;;;;;;;;;;;29.90;99.90;;;;;;5114847;28;19914;-67
2024/01/30 04:17:49;;;;;;;;;;;30.10;99.90;;;;;;5114746;28;20352;-71
2024/01/30 04:20:16;;;;;;;;;;;30.50;99.90;;;;;;5114621;28;19937;-67
2024/01/30 04:22:46;;;;;;;;;;;30.90;99.90;;;;;;5114600;28;20279;-67
2024/01/30 04:25:13;;;;;;;;;;;31.10;99.90;;;;;;5114414;28;20343;-69
2024/01/30 04:27:39;;;;;;;;;;;31.40;99.90;;;;;;5114521;28;19912;-67
2024/01/30 04:30:06;;;;;;;;;;;31.50;99.90;;;;;;5114693;28;19930;-68
2024/01/30 04:32:33;;;;;;;;;;;31.20;99.90;;;;;;5114598;28;19923;-68
2024/01/30 04:34:59;;;;;;;;;;;30.80;99.90;;;;;;5114477;28;20013;-68
2024/01/30 04:37:26;;;;;;;;;;;30.70;99.90;;;;;;5114439;28;20328;-68
2024/01/30 04:39:53;;;;;;;;;;;30.50;99.90;;;;;;5114244;28;20337;-66
2024/01/30 04:42:19;;;;;;;;;;;30.10;99.90;;;;;;5114304;28;19911;-67
2024/01/30 04:44:46;;;;;;;;;;;29.80;99.90;;;;;;5114281;28;19912;-68
2024/01/30 04:47:12;;;;;;;;;;;29.30;99.90;;;;;;5114002;28;20375;-65
2024/01/30 04:49:42;;;;;;;;;;;29.10;99.90;;;;;;5114046;28;19941;-67
2024/01/30 04:52:09;;;;;;;;;;;29.00;99.90;;;;;;5114149;28;20506;-69
2024/01/30 04:54:36;;;;;;;;;;;29.10;99.90;;;;;;5113802;28;19939;-66
2024/01/30 04:57:03;;;;;;;;;;;29.40;99.90;;;;;;5113730;28;20401;-66
2024/01/30 04:59:29;;;;;;;;;;;29.50;99.90;;;;;;5113629;28;20287;-71
2024/01/30 05:01:56;;;;;;;;;;;29.80;99.90;;;;;;5114012;28;19912;-69
2024/01/30 05:04:22;;;;;;;;;;;30.60;99.90;;;;;;5113956;28;19915;-67
2024/01/30 05:06:49;;;;;;;;;;;31.90;99.90;;;;;;5113765;28;19919;-70
2024/01/30 05:09:16;;;;;;;;;;;33.00;98.80;;;;;;5113954;28;20407;-67
2024/01/30 05:11:42;;;;;;;;;;;33.80;98.10;;;;;;5113932;28;20009;-68
2024/01/30 05:14:10;;;;;;;;;;;34.50;97.40;;;;;;5113685;28;19914;-68
2024/01/30 05:16:37;;;;;;;;;;;35.70;95.80;;;;;;5114245;28;20352;-70
2024/01/30 05:19:04;;;;;;;;;;;36.60;94.00;;;;;;5113757;28;19966;-68
2024/01/30 05:21:30;;;;;;;;;;;36.70;93.10;;;;;;5113431;28;19967;-68
2024/01/30 05:23:57;;;;;;;;;;;36.80;93.10;;;;;;5114053;28;20002;-68
2024/01/30 05:26:24;;;;;;;;;;;37.40;92.70;;;;;;5113487;28;19960;-68
2024/01/30 05:28:50;;;;;;;;;;;37.90;91.90;;;;;;5113514;28;19954;-68
2024/01/30 05:31:17;;;;;;;;;;;38.20;91.10;;;;;;5113496;28;19908;-69
2024/01/30 05:33:44;;;;;;;;;;;37.90;91.70;;;;;;5113394;28;20383;-71
2024/01/30 05:36:13;;;;;;;;;;;38.00;90.50;;;;;;5113333;28;20378;-69
2024/01/30 05:38:39;;;;;;;;;;;38.10;90.70;;;;;;5113452;28;19912;-72
2024/01/30 05:41:06;;;;;;;;;;;38.30;89.50;;;;;;5113731;28;19915;-67
2024/01/30 05:43:33;;;;;;;;;;;38.00;90.30;;;;;;5113194;28;19907;-68
2024/01/30 05:45:59;;;;;;;;;;;38.50;89.90;;;;;;5113155;28;19907;-69
2024/01/30 05:48:26;;;;;;;;;;;38.80;88.20;;;;;;5113287;28;19953;-69
2024/01/30 05:50:52;;;;;;;;;;;38.40;88.40;;;;;;5113430;28;20008;-69
2024/01/30 05:53:19;;;;;;;;;;;38.00;90.00;;;;;;5113324;28;20367;-69
2024/01/30 05:55:46;;;;;;;;;;;36.50;90.70;;;;;;5113271;28;19919;-68
2024/01/30 05:58:12;;;;;;;;;;;35.80;91.70;;;;;;5113203;28;19912;-69
2024/01/30 06:00:39;;;;;;;;;;;34.50;92.90;;;;;;5113357;28;20424;-69
2024/01/30 06:03:06;;;;;;;;;;;34.70;93.00;;;;;;5113162;28;19908;-68
2024/01/30 06:05:32;;;;;;;;;;;34.60;92.90;;;;;;5112860;28;19943;-68
2024/01/30 06:07:59;;;;;;;;;;;34.50;92.70;;;;;;5112776;28;19990;-67
2024/01/30 06:10:25;;;;;;;;;;;34.00;93.10;;;;;;5112898;28;19915;-68
2024/01/30 06:12:52;;;;;;;;;;;33.40;94.10;;;;;;5115563;28;20002;-72
2024/01/30 06:15:19;;;;;;;;;;;32.70;95.00;;;;;;5116884;28;20014;-68
2024/01/30 06:17:45;;;;;;;;;;;32.10;95.70;;;;;;5116836;28;19912;-68
2024/01/30 06:20:12;;;;;;;;;;;31.50;96.90;;;;;;5114070;28;20355;-68
2024/01/30 06:22:38;;;;;;;;;;;31.00;97.40;;;;;;5116180;28;19907;-69
2024/01/30 06:25:05;;;;;;;;;;;30.50;98.40;;;;;;5116187;28;19907;-67
2024/01/30 06:27:32;;;;;;;;;;;30.00;99.00;;;;;;5116440;28;19908;-69
2024/01/30 06:29:58;;;;;;;;;;;29.70;99.90;;;;;;5116183;28;19914;-68
2024/01/30 06:32:25;;;;;;;;;;;29.40;99.90;;;;;;5115952;28;19908;-68
2024/01/30 06:34:52;;;;;;;;;;;29.10;99.90;;;;;;5114206;28;19916;-68
2024/01/30 06:37:18;;;;;;;;;;;28.90;99.90;;;;;;5097727;28;19969;-69
2024/01/30 06:39:45;;;;;;;;;;;28.80;99.90;;;;;;5116114;28;19923;-69
2024/01/30 06:42:12;;;;;;;;;;;28.70;99.90;;;;;;5115981;28;19957;-69
2024/01/30 06:44:38;;;;;;;;;;;28.70;99.90;;;;;;5115415;28;19912;-68
2024/01/30 06:47:05;;;;;;;;;;;28.80;99.90;;;;;;5116298;28;20417;-68
2024/01/30 06:49:31;;;;;;;;;;;28.80;99.90;;;;;;5115914;28;19908;-67
2024/01/30 06:51:58;;;;;;;;;;;28.90;99.90;;;;;;5115834;28;19943;-68
2024/01/30 06:54:25;;;;;;;;;;;28.80;99.90;;;;;;5112945;28;20010;-68
2024/01/30 06:56:51;;;;;;;;;;;28.60;99.90;;;;;;5117219;27;19920;-69
2024/01/30 06:59:18;;;;;;;;;;;28.70;99.90;;;;;;5119438;27;19918;-68
2024/01/30 07:01:45;;;;;;;;;;;28.50;99.90;;;;;;5132756;27;19920;-67
2024/01/30 07:04:11;;;;;;;;;;;28.40;99.90;;;;;;5129525;27;19911;-67
2024/01/30 07:06:38;;;;;;;;;;;28.20;99.90;;;;;;5119243;27;19918;-67
2024/01/30 07:09:05;;;;;;;;;;;28.00;99.90;;;;;;5120912;27;19938;-66
2024/01/30 07:11:32;;;;;;;;;;;27.70;99.90;;;;;;5115045;27;19912;-69
2024/01/30 07:13:58;;;;;;;;;;;27.60;99.90;;;;;;5121112;27;20388;-67
2024/01/30 07:16:25;;;;;;;;;;;27.50;99.90;;;;;;5114646;27;19908;-66
2024/01/30 07:18:52;;;;;;;;;;;27.60;99.90;;;;;;5126556;27;19912;-68
2024/01/30 07:21:18;;;;;;;;;;;27.60;99.90;;;;;;5095263;28;20052;-69
2024/01/30 07:23:45;;;;;;;;;;;27.70;99.90;;;;;;5113703;27;19919;-68
2024/01/30 07:26:11;;;;;;;;;;;27.60;99.90;;;;;;5118045;27;20417;-67
2024/01/30 07:28:38;;;;;;;;;;;27.60;99.90;;;;;;5135574;27;20026;-67
2024/01/30 07:31:06;;;;;;;;;;;27.60;99.90;;;;;;5121136;27;20067;-68
2024/01/30 07:33:32;;;;;;;;;;;27.40;99.90;;;;;;5107705;28;19908;-67
2024/01/30 07:35:59;;;;;;;;;;;27.30;99.90;;;;;;5101017;27;19918;-67
2024/01/30 07:38:26;;;;;;;;;;;27.10;99.90;;;;;;5098037;28;19912;-68
2024/01/30 07:40:53;;;;;;;;;;;27.00;99.90;;;;;;5121814;27;19931;-69
2024/01/30 07:43:20;;;;;;;;;;;27.00;99.90;;;;;;5135210;27;20392;-67
2024/01/30 07:45:46;;;;;;;;;;;26.80;99.90;;;;;;5115415;27;20387;-67
2024/01/30 07:48:13;;;;;;;;;;;26.90;99.90;;;;;;5132971;27;19915;-69
2024/01/30 07:50:40;;;;;;;;;;;26.80;99.90;;;;;;5120371;27;20375;-69
2024/01/30 07:53:07;;;;;;;;;;;26.80;99.90;;;;;;5135343;27;19912;-69
2024/01/30 07:55:33;;;;;;;;;;;26.80;99.90;;;;;;5122584;27;19938;-69
2024/01/30 07:58:00;;;;;;;;;;;26.90;99.90;;;;;;5134835;27;20061;-70
2024/01/30 08:00:28;;;;;;;;;;;26.80;99.90;;;;;;5121000;27;19923;-68
2024/01/30 08:02:55;;;;;;;;;;;26.80;99.90;;;;;;5134627;27;19978;-67
2024/01/30 08:05:23;;;;;;;;;;;26.70;99.90;;;;;;5118378;27;19918;-67
2024/01/30 08:07:49;;;;;;;;;;;26.70;99.90;;;;;;5131876;27;19957;-68
2024/01/30 08:10:18;;;;;;;;;;;26.60;99.90;;;;;;5126782;27;19916;-68
2024/01/30 08:12:45;;;;;;;;;;;26.50;99.90;;;;;;5131427;27;20519;-69
2024/01/30 08:15:14;;;;;;;;;;;26.30;99.90;;;;;;5113322;28;20342;-68
2024/01/30 08:17:41;;;;;;;;;;;26.30;99.90;;;;;;5111793;27;19964;-69
2024/01/30 08:20:11;;;;;;;;;;;26.20;99.90;;;;;;5125017;27;19961;-67
2024/01/30 08:22:41;;;;;;;;;;;26.10;99.90;;;;;;5120589;27;19918;-69
2024/01/30 08:25:09;;;;;;;;;;;26.00;99.90;;;;;;5120131;27;19912;-67
2024/01/30 08:27:38;;;;;;;;;;;26.00;99.90;;;;;;5118092;27;19921;-69
2024/01/30 08:30:06;;;;;;;;;;;26.00;99.90;;;;;;5109516;28;20271;-67
2024/01/30 08:32:32;;;;;;;;;;;26.00;99.90;;;;;;5110410;28;19911;-68
2024/01/30 08:34:59;;;;;;;;;;;25.90;99.90;;;;;;5109134;28;19912;-69
2024/01/30 08:37:26;;;;;;;;;;;25.80;99.90;;;;;;5107035;27;20341;-67
2024/01/30 08:39:54;;;;;;;;;;;25.90;99.90;;;;;;5113621;27;19973;-68
2024/01/30 08:42:22;;;;;;;;;;;25.80;99.90;;;;;;5113298;27;19923;-69
2024/01/30 08:44:51;;;;;;;;;;;25.80;99.90;;;;;;5113328;27;20340;-67
2024/01/30 08:47:18;;;;;;;;;;;25.70;99.90;;;;;;5125255;27;19911;-67
2024/01/30 08:49:45;;;;;;;;;;;25.60;99.90;;;;;;5129255;27;20300;-67
2024/01/30 08:52:11;;;;;;;;;;;25.60;99.90;;;;;;5103356;28;19915;-66
2024/01/30 08:54:38;;;;;;;;;;;25.50;99.90;;;;;;5103518;27;19919;-67
2024/01/30 08:57:05;;;;;;;;;;;25.50;99.90;;;;;;5132069;27;20092;-67
2024/01/30 08:59:31;;;;;;;;;;;25.50;99.90;;;;;;5131389;27;20367;-67
2024/01/30 09:01:59;;;;;;;;;;;25.40;99.90;;;;;;5112527;28;20269;-66
2024/01/30 09:04:25;;;;;;;;;;;25.30;99.90;;;;;;5112964;27;19916;-66
2024/01/30 09:06:52;;;;;;;;;;;25.30;99.90;;;;;;5113037;27;19916;-67
2024/01/30 09:09:19;;;;;;;;;;;25.20;99.90;;;;;;5113008;28;19912;-67
2024/01/30 09:11:45;;;;;;;;;;;25.20;99.90;;;;;;5112919;28;20433;-68
2024/01/30 09:14:16;;;;;;;;;;;25.10;99.90;;;;;;5112887;28;19914;-68
2024/01/30 09:16:42;;;;;;;;;;;25.10;99.90;;;;;;5108738;27;19911;-67
2024/01/30 09:19:10;;;;;;;;;;;25.00;99.90;;;;;;5133489;27;20366;-66
2024/01/30 09:21:37;;;;;;;;;;;25.00;99.90;;;;;;5100477;28;19919;-67
2024/01/30 09:24:07;;;;;;;;;;;24.90;99.90;;;;;;5094351;28;19957;-68
2024/01/30 09:26:37;;;;;;;;;;;24.90;99.90;;;;;;5124813;27;19918;-67
2024/01/30 09:29:03;;;;;;;;;;;24.90;99.90;;;;;;5094657;28;19951;-68
2024/01/30 09:31:30;;;;;;;;;;;24.90;99.90;;;;;;5119531;27;19912;-66
2024/01/30 09:33:57;;;;;;;;;;;24.90;99.90;;;;;;5098445;28;19915;-67
2024/01/30 09:36:24;;;;;;;;;;;24.90;99.90;;;;;;5123040;27;19911;-68
2024/01/30 09:38:51;;;;;;;;;;;24.90;99.90;;;;;;5111317;28;20318;-70
2024/01/30 09:41:20;;;;;;;;;;;24.90;99.90;;;;;;5114744;27;19927;-64
2024/01/30 09:43:49;;;;;;;;;;;24.90;99.90;;;;;;5120699;27;19912;-66
2024/01/30 09:46:17;;;;;;;;;;;24.90;99.90;;;;;;5125597;27;19998;-68
2024/01/30 09:48:43;;;;;;;;;;;24.90;99.90;;;;;;5132188;27;19918;-66
2024/01/30 09:51:11;;;;;;;;;;;24.90;99.90;;;;;;5107316;28;20423;-66
2024/01/30 09:53:39;;;;;;;;;;;24.80;99.90;;;;;;5131106;28;19916;-66
2024/01/30 09:56:06;;;;;;;;;;;24.90;99.90;;;;;;5122310;28;19927;-67
2024/01/30 09:58:32;;;;;;;;;;;24.90;99.90;;;;;;5130315;28;19917;-67
2024/01/30 10:00:59;;;;;;;;;;;24.90;99.90;;;;;;5107868;28;20339;-68
2024/01/30 10:03:26;;;;;;;;;;;24.90;99.90;;;;;;5112122;28;19908;-66
2024/01/30 10:05:53;;;;;;;;;;;24.90;99.90;;;;;;5131145;28;19926;-68
2024/01/30 10:08:22;;;;;;;;;;;24.90;99.90;;;;;;5133120;28;19962;-67
2024/01/30 10:10:49;;;;;;;;;;;24.90;99.90;;;;;;5114734;28;19912;-69
2024/01/30 10:13:19;;;;;;;;;;;25.00;99.90;;;;;;5133402;28;19908;-68
2024/01/30 10:15:47;;;;;;;;;;;24.90;99.90;;;;;;5114782;28;19918;-68
2024/01/30 10:18:14;;;;;;;;;;;24.90;99.90;;;;;;5132158;28;19919;-67
2024/01/30 10:20:41;;;;;;;;;;;25.00;99.90;;;;;;5128111;28;19922;-71
2024/01/30 10:23:08;;;;;;;;;;;25.00;99.90;;;;;;5112521;28;20000;-67
2024/01/30 10:25:35;;;;;;;;;;;25.00;99.90;;;;;;5112591;28;19919;-67
2024/01/30 10:28:02;;;;;;;;;;;25.00;99.90;;;;;;5112119;28;19912;-69
2024/01/30 10:30:29;;;;;;;;;;;24.90;99.90;;;;;;5112438;28;19911;-67
2024/01/30 10:32:55;;;;;;;;;;;24.90;99.90;;;;;;5094286;28;19919;-70
2024/01/30 10:35:22;;;;;;;;;;;24.90;99.90;;;;;;5094370;28;20419;-67
2024/01/30 10:37:49;;;;;;;;;;;25.00;99.90;;;;;;5094474;28;19914;-68
2024/01/30 10:40:16;;;;;;;;;;;24.90;99.90;;;;;;5112320;28;20363;-69
2024/01/30 10:42:44;;;;;;;;;;;24.90;99.90;;;;;;5092820;28;19977;-69
2024/01/30 10:45:12;;;;;;;;;;;24.90;99.90;;;;;;5110973;28;19919;-72
2024/01/30 10:47:40;;;;;;;;;;;24.80;99.90;;;;;;5111902;28;19956;-66
2024/01/30 10:50:10;;;;;;;;;;;24.80;99.90;;;;;;5094984;28;19998;-67
2024/01/30 10:52:37;;;;;;;;;;;24.80;99.90;;;;;;5114395;28;19911;-68
2024/01/30 10:55:06;;;;;;;;;;;24.80;99.90;;;;;;5114558;28;19967;-69
2024/01/30 10:57:34;;;;;;;;;;;24.80;99.90;;;;;;5130997;27;20375;-69
2024/01/30 11:00:05;;;;;;;;;;;24.80;99.90;;;;;;5136037;27;19942;-72
2024/01/30 11:02:33;;;;;;;;;;;24.80;99.90;;;;;;5136500;27;19912;-68
2024/01/30 11:05:00;;;;;;;;;;;24.80;99.90;;;;;;5135782;27;19935;-69
2024/01/30 11:07:28;;;;;;;;;;;24.80;99.90;;;;;;5136376;27;19911;-70
2024/01/30 11:10:00;;;;;;;;;;;24.70;99.90;;;;;;5136498;27;19908;-68
2024/01/30 11:12:28;;;;;;;;;;;24.70;99.90;;;;;;5077516;28;20018;-68
2024/01/30 11:15:07;;;;;;;;;;;24.80;99.90;;;;;;5095662;28;19908;-72
2024/01/30 11:17:49;;;;;;;;;;;24.70;99.90;;;;;;5095426;28;20284;-70
2024/01/30 11:20:22;;;;;;;;;;;24.60;99.90;;;;;;5112424;27;19958;-70
2024/01/30 11:22:49;;;;;;;;;;;24.60;99.90;;;;;;5115881;28;19919;-67
2024/01/30 11:25:17;;;;;;;;;;;24.50;99.90;;;;;;5097493;28;20386;-70
2024/01/30 11:27:44;;;;;;;;;;;24.50;99.90;;;;;;5097579;28;19929;-71
2024/01/30 11:30:11;;;;;;;;;;;24.40;99.90;;;;;;5115591;28;19973;-71
2024/01/30 11:32:38;;;;;;;;;;;24.40;99.90;;;;;;5115609;28;20267;-69
2024/01/30 11:35:11;;;;;;;;;;;24.40;99.90;;;;;;5097574;28;19908;-67
2024/01/30 11:37:41;;;;;;;;;;;24.40;99.90;;;;;;5115382;28;19914;-68
2024/01/30 11:40:08;;;;;;;;;;;24.40;99.90;;;;;;5115509;27;20275;-69
2024/01/30 11:42:38;;;;;;;;;;;24.40;99.90;;;;;;5115608;28;19908;-70
2024/01/30 11:45:05;;;;;;;;;;;24.40;99.90;;;;;;5115569;28;19912;-69
2024/01/30 11:47:35;;;;;;;;;;;24.30;99.90;;;;;;5115347;28;19908;-67
2024/01/30 11:50:01;;;;;;;;;;;24.30;99.90;;;;;;5115331;27;19914;-71
2024/01/30 11:52:28;;;;;;;;;;;24.30;99.90;;;;;;5115573;28;20253;-70
2024/01/30 11:54:55;;;;;;;;;;;24.30;99.90;;;;;;5096979;28;20362;-71
2024/01/30 11:57:22;;;;;;;;;;;24.30;99.90;;;;;;5114890;28;19912;-69
2024/01/30 11:59:48;;;;;;;;;;;24.30;99.90;;;;;;5115310;28;20281;-68
2024/01/30 12:02:18;;;;;;;;;;;24.30;99.90;;;;;;5115224;28;19912;-68
2024/01/30 12:04:45;;;;;;;;;;;24.30;99.90;;;;;;5115204;28;19912;-71
2024/01/30 12:07:15;;;;;;;;;;;24.30;99.90;;;;;;5115319;28;19907;-66
2024/01/30 12:09:42;;;;;;;;;;;24.30;99.90;;;;;;5114333;27;19987;-71
2024/01/30 12:12:11;;;;;;;;;;;24.20;99.90;;;;;;5135818;27;20359;-68
2024/01/30 12:14:38;;;;;;;;;;;24.30;99.90;;;;;;5135321;27;19907;-67
2024/01/30 12:17:06;;;;;;;;;;;24.30;99.90;;;;;;5135416;27;19908;-68
2024/01/30 12:19:32;;;;;;;;;;;24.30;99.90;;;;;;5135097;27;19981;-68
2024/01/30 12:21:59;;;;;;;;;;;24.30;99.90;;;;;;5135284;27;20015;-67
2024/01/30 12:24:26;;;;;;;;;;;24.30;99.90;;;;;;5135434;27;19911;-70
2024/01/30 12:26:56;;;;;;;;;;;24.30;99.90;;;;;;5135215;27;20332;-71
2024/01/30 12:29:23;;;;;;;;;;;24.30;99.90;;;;;;5134962;27;19915;-72
2024/01/30 12:31:53;;;;;;;;;;;24.30;99.90;;;;;;5134914;27;20016;-68
2024/01/30 12:34:20;;;;;;;;;;;24.40;99.90;;;;;;5135079;27;19908;-71
2024/01/30 12:36:48;;;;;;;;;;;24.30;99.90;;;;;;5135071;27;19907;-67
2024/01/30 12:39:15;;;;;;;;;;;24.40;99.90;;;;;;5134757;27;19969;-68
2024/01/30 12:41:42;;;;;;;;;;;24.40;99.90;;;;;;5134204;27;19916;-70
2024/01/30 12:44:08;;;;;;;;;;;24.30;99.90;;;;;;5134500;27;19917;-67
2024/01/30 12:46:35;;;;;;;;;;;24.30;99.90;;;;;;5134683;27;19942;-67
2024/01/30 12:49:02;;;;;;;;;;;24.30;99.90;;;;;;5134426;27;19953;-70
2024/01/30 12:51:29;;;;;;;;;;;24.40;99.90;;;;;;5134178;27;20288;-71
2024/01/30 12:53:55;;;;;;;;;;;24.40;99.90;;;;;;5134707;27;19911;-69
2024/01/30 12:56:22;;;;;;;;;;;24.40;99.90;;;;;;5134348;27;19987;-68
2024/01/30 12:58:49;;;;;;;;;;;24.40;99.90;;;;;;5134397;27;20439;-72
2024/01/30 13:01:16;;;;;;;;;;;24.30;99.90;;;;;;5132407;27;19926;-70
2024/01/30 13:03:42;;;;;;;;;;;24.30;99.90;;;;;;5133950;27;19919;-69
2024/01/30 13:06:09;;;;;;;;;;;24.40;99.90;;;;;;5134157;27;19911;-71
2024/01/30 13:08:35;;;;;;;;;;;24.30;99.90;;;;;;5134104;27;19915;-68
2024/01/30 13:11:02;;;;;;;;;;;24.30;99.90;;;;;;5134061;27;20271;-72
2024/01/30 13:13:29;;;;;;;;;;;24.30;99.90;;;;;;5134870;27;19923;-70
2024/01/30 13:15:56;;;;;;;;;;;24.40;99.90;;;;;;5134358;27;19918;-68
2024/01/30 13:18:22;;;;;;;;;;;24.40;99.90;;;;;;5126542;27;20271;-69
2024/01/30 13:20:49;;;;;;;;;;;24.30;99.90;;;;;;5123744;27;20010;-71
2024/01/30 13:23:16;;;;;;;;;;;24.30;99.90;;;;;;5134400;27;19907;-71
2024/01/30 13:25:42;;;;;;;;;;;24.30;99.90;;;;;;5134339;27;20458;-70
2024/01/30 13:28:09;;;;;;;;;;;24.30;99.90;;;;;;5132422;27;19914;-70
2024/01/30 13:30:35;;;;;;;;;;;24.20;99.90;;;;;;5126697;27;19919;-69
2024/01/30 13:33:03;;;;;;;;;;;24.30;99.90;;;;;;5133917;27;19911;-66
2024/01/30 13:35:29;;;;;;;;;;;24.30;99.90;;;;;;5133682;27;19967;-70
2024/01/30 13:37:56;;;;;;;;;;;24.30;99.90;;;;;;5133744;27;19911;-69
2024/01/30 13:40:23;;;;;;;;;;;24.30;99.90;;;;;;5133301;27;19915;-70
2024/01/30 13:42:49;;;;;;;;;;;24.20;99.90;;;;;;5134041;27;20355;-70
2024/01/30 13:45:16;;;;;;;;;;;24.20;99.90;;;;;;5133990;27;19952;-67
2024/01/30 13:47:43;;;;;;;;;;;24.20;99.90;;;;;;5132886;27;20329;-69
2024/01/30 13:50:14;;;;;;;;;;;24.20;99.90;;;;;;5133353;27;19937;-69
2024/01/30 13:52:41;;;;;;;;;;;24.20;99.90;;;;;;5133482;27;19907;-69
2024/01/30 13:55:08;;;;;;;;;;;24.20;99.90;;;;;;5133553;28;19957;-66
2024/01/30 13:57:36;;;;;;;;;;;24.20;99.90;;;;;;5133875;28;19945;-70
2024/01/30 14:00:06;;;;;;;;;;;24.20;99.90;;;;;;5125736;28;19965;-71
2024/01/30 14:02:33;;;;;;;;;;;24.10;99.90;;;;;;5112942;28;19912;-71
2024/01/30 14:04:59;;;;;;;;;;;24.10;99.90;;;;;;5113152;28;19908;-70
2024/01/30 14:07:26;;;;;;;;;;;24.20;99.90;;;;;;5113365;28;19958;-68
2024/01/30 14:09:53;;;;;;;;;;;24.20;99.90;;;;;;5094721;28;19919;-69
2024/01/30 14:12:19;;;;;;;;;;;24.20;99.90;;;;;;5112940;28;19908;-69
2024/01/30 14:14:46;;;;;;;;;;;24.20;99.90;;;;;;5121608;28;19919;-70